M I D A S
Marine Information and Data Acquisition System
Tripno 475 of the Zeeleeuw from 2003-01-17 07:44:18 to 2003-01-17 12:53:44
Back to CruiseResearch ActivitiesStationsMapUnderway DataData graphs

EquipmentUnitsComment
TimeDGPSUTC
LatitudeDGPSDM.mWGS84
LongitudeDGPSDM.mWGS84
HeadingGyrodeg 
SOGDGPSknotsSpeed over ground
COGDGPSdegCourse over ground
DepthEcho soundermeters200 kHz
Missing or incorrect values are displayed as -999
Navigation data collected by the RV Zeeleeuw from 2003-01-17 07:44:18 to 2003-01-17 12:53:44
Time Latitude Longitude Heading SOG COG Depth
2003-01-17 07:45:24 51°13.665 2°55.816 114.7 5 293.3 -999
2003-01-17 07:46:22 51°13.681 2°55.777 65.8 1.3 34.2 10.8
2003-01-17 07:47:23 51°13.734 2°55.766 327.2 4.4 324.3 8.9
2003-01-17 07:48:22 51°13.787 2°55.674 314.5 5.4 309.7 9.2
2003-01-17 07:49:23 51°13.864 2°55.58 343.8 6 337.2 8.9
2003-01-17 07:50:22 51°13.959 2°55.527 347.2 6.2 341.1 8.7
2003-01-17 07:51:22 51°14.06 2°55.466 341.5 6.8 336.4 8.7
2003-01-17 07:52:22 51°14.164 2°55.378 334.5 7.1 328.9 7.8
2003-01-17 07:53:22 51°14.257 2°55.259 320 7.2 314.4 7.8
2003-01-17 07:54:22 51°14.343 2°55.1 314.5 8.8 308.5 8.2
2003-01-17 07:55:22 51°14.441 2°54.893 312 10.4 304.4 9.2
2003-01-17 07:56:22 51°14.546 2°54.665 312.8 10.8 305.2 9.1
2003-01-17 07:57:23 51°14.664 2°54.434 316 11.5 309.1 8.9
2003-01-17 07:58:23 51°14.775 2°54.181 300.2 11.5 295.4 9
2003-01-17 07:59:22 51°14.856 2°53.905 304.7 11.8 295.8 9.1
2003-01-17 08:00:22 51°14.937 2°53.619 306.5 11.8 297.6 9.2
2003-01-17 08:01:24 51°15.024 2°53.328 307.3 11.7 299.4 9.4
2003-01-17 08:02:22 51°15.099 2°53.051 302.2 11.8 294 9.7
2003-01-17 08:03:22 51°15.179 2°52.762 297.2 11.9 288.9 10.3
2003-01-17 08:04:22 51°15.256 2°52.471 298.3 11.9 290.7 10.8
2003-01-17 08:05:23 51°15.334 2°52.175 303.8 12 294.6 11.1
2003-01-17 08:06:22 51°15.417 2°51.894 298.8 11.6 291.4 11.7
2003-01-17 08:07:23 51°15.386 2°51.594 246.2 11.5 241.7 11.9
2003-01-17 08:08:22 51°15.306 2°51.315 252.5 11.9 247 11.9
2003-01-17 08:09:22 51°15.234 2°51.027 256.5 10.7 250.9 12.3
2003-01-17 08:10:22 51°15.175 2°50.825 244.5 7.3 240.9 12.2
2003-01-17 08:11:22 51°15.118 2°50.667 248.5 6.6 243.1 12.2
2003-01-17 08:12:22 51°15.078 2°50.506 252 6.4 248.7 12.4
2003-01-17 08:13:22 51°15.027 2°50.375 229.7 5 228.3 12.3
2003-01-17 08:14:22 51°14.981 2°50.309 219.8 3 221.3 12.2
2003-01-17 08:15:24 51°14.951 2°50.264 221.2 2.1 223 12.3
2003-01-17 08:16:22 51°14.93 2°50.234 211.3 1.4 218.4 12.3
2003-01-17 08:17:23 51°14.916 2°50.222 194.7 0.7 195.6 12.3
2003-01-17 08:18:22 51°14.907 2°50.223 174.2 0.5 141 12.2
2003-01-17 08:19:22 51°14.903 2°50.234 159.2 0.7 121.9 12.3
2003-01-17 08:20:22 51°14.891 2°50.249 167.5 1.3 154.7 12.5
2003-01-17 08:21:24 51°14.865 2°50.257 190.7 1.5 182.8 12.3
2003-01-17 08:22:23 51°14.838 2°50.244 210.5 1.8 208.2 12.2
2003-01-17 08:23:22 51°14.814 2°50.216 215.8 1.6 221.4 12.2
2003-01-17 08:24:24 51°14.792 2°50.196 192.5 1.4 194 12.1
2003-01-17 08:25:22 51°14.772 2°50.197 186.2 1.2 172.3 12.1
2003-01-17 08:26:22 51°14.748 2°50.197 194.3 1.8 187.9 12
2003-01-17 08:27:22 51°14.712 2°50.183 206.5 2.4 199.6 12.1
2003-01-17 08:28:22 51°14.677 2°50.148 219.8 2.6 216.4 12
2003-01-17 08:29:22 51°14.647 2°50.1 231.2 2.6 234 12
2003-01-17 08:30:23 51°14.624 2°50.04 238.2 2.6 245.4 12
2003-01-17 08:31:24 51°14.603 2°49.976 246 2.6 247.1 11.9
2003-01-17 08:32:22 51°14.591 2°49.91 256.3 2.8 256.6 12
2003-01-17 08:33:22 51°14.583 2°49.832 265.5 3 264.6 12
2003-01-17 08:34:22 51°14.583 2°49.755 273.3 2.7 272.3 11.9
2003-01-17 08:35:24 51°14.589 2°49.683 279.7 2.6 280.4 12.1
2003-01-17 08:36:22 51°14.597 2°49.62 285.5 2.6 286.7 12.2
2003-01-17 08:37:22 51°14.61 2°49.553 290.5 2.7 289.2 12.3
2003-01-17 08:38:22 51°14.63 2°49.486 298.7 2.8 297.1 12.4
2003-01-17 08:39:24 51°14.655 2°49.421 304.2 2.8 303.3 12.4
2003-01-17 08:40:24 51°14.681 2°49.36 308.8 2.8 306.8 12.6
2003-01-17 08:41:22 51°14.711 2°49.306 318 2.8 315.1 12.6
2003-01-17 08:42:22 51°14.747 2°49.259 326.8 2.7 325.6 12.8
2003-01-17 08:43:22 51°14.788 2°49.222 337.5 2.9 335.6 12.9
2003-01-17 08:44:23 51°14.836 2°49.201 354.3 3 350.8 13
2003-01-17 08:45:22 51°14.887 2°49.209 27.5 3.1 19.4 13.2
2003-01-17 08:46:24 51°14.93 2°49.255 51.8 3 41.8 13.1
2003-01-17 08:47:22 51°14.959 2°49.311 67.2 2.7 56 13.2
2003-01-17 08:48:23 51°14.981 2°49.371 72.2 2.6 60.1 13.1
2003-01-17 08:49:22 51°15 2°49.434 78.2 2.7 66.3 13.2
2003-01-17 08:50:22 51°15.017 2°49.5 78 2.7 67 13.2
2003-01-17 08:51:24 51°15.035 2°49.57 80.2 2.7 69 13.3
2003-01-17 08:52:24 51°15.051 2°49.638 80 2.7 68.4 13.2
2003-01-17 08:53:22 51°15.068 2°49.703 79.8 2.8 67.2 13.1
2003-01-17 08:54:22 51°15.086 2°49.771 81.7 2.8 66.1 13.4
2003-01-17 08:55:22 51°15.103 2°49.839 83.3 2.8 69.3 13.3
2003-01-17 08:56:22 51°15.118 2°49.908 85.2 2.8 72.6 13.3
2003-01-17 08:57:22 51°15.132 2°49.979 85.3 2.8 72.2 13.3
2003-01-17 08:58:22 51°15.146 2°50.049 85.3 2.8 70.6 13.4
2003-01-17 08:59:22 51°15.16 2°50.115 88.5 2.4 70.5 13.4
2003-01-17 09:00:22 51°15.17 2°50.171 95.8 2.2 75.4 13.3
2003-01-17 09:01:22 51°15.178 2°50.226 103.2 2 80.1 13.4
2003-01-17 09:02:23 51°15.181 2°50.279 113.8 1.9 85.3 13.4
2003-01-17 09:03:22 51°15.187 2°50.318 118.2 1.3 72.7 13.4
2003-01-17 09:04:22 51°15.194 2°50.346 119.7 1 62.9 13.3
2003-01-17 09:05:22 51°15.202 2°50.37 123.8 1 57.2 13.5
2003-01-17 09:06:22 51°15.213 2°50.39 121.2 1 44 13.6
2003-01-17 09:07:24 51°15.228 2°50.408 114.2 1.1 37 13.6
2003-01-17 09:08:23 51°15.243 2°50.425 109.8 1.2 32.5 13.6
2003-01-17 09:09:22 51°15.258 2°50.446 110 1.2 42.4 13.6
2003-01-17 09:10:22 51°15.272 2°50.469 112.5 1.2 46 13.7
2003-01-17 09:11:22 51°15.287 2°50.492 110.2 1.2 45.1 13.8
2003-01-17 09:12:24 51°15.302 2°50.515 108.7 1.2 43.9 13.8
2003-01-17 09:13:22 51°15.316 2°50.535 107.5 1.2 43.4 13.8
2003-01-17 09:14:22 51°15.33 2°50.558 109.3 1.2 44.7 13.9
2003-01-17 09:15:23 51°15.346 2°50.583 112.7 1.3 47.9 13.7
2003-01-17 09:16:24 51°15.361 2°50.609 113.7 1.3 46.8 13.8
2003-01-17 09:17:22 51°15.376 2°50.635 114 1.4 48.4 14
2003-01-17 09:18:24 51°15.378 2°50.686 142.5 2.4 107.1 13.9
2003-01-17 09:19:22 51°15.355 2°50.73 178.8 2.3 151.7 13.8
2003-01-17 09:20:23 51°15.322 2°50.754 182 1.9 155.1 13.8
2003-01-17 09:21:22 51°15.302 2°50.771 187.7 1.1 143.1 13.8
2003-01-17 09:22:22 51°15.293 2°50.792 184 0.8 107.6 14
2003-01-17 09:23:22 51°15.287 2°50.812 187 1 137.1 13.8
2003-01-17 09:24:22 51°15.262 2°50.827 191.5 2.1 169.9 13.3
2003-01-17 09:25:22 51°15.22 2°50.829 196.2 2.7 181.5 13.8
2003-01-17 09:26:23 51°15.175 2°50.817 202.8 2.8 192.8 13.7
2003-01-17 09:27:22 51°15.13 2°50.802 206.2 2.9 195.1 13.5
2003-01-17 09:28:24 51°15.084 2°50.774 211.7 2.9 204.5 13.5
2003-01-17 09:29:22 51°15.044 2°50.738 217 2.9 210.7 13.7
2003-01-17 09:30:24 51°15.002 2°50.696 219.3 2.8 213.6 13.6
2003-01-17 09:31:24 51°14.966 2°50.652 224.5 2.8 220.2 13.6
2003-01-17 09:32:22 51°14.934 2°50.6 231.5 2.9 231.4 13.6
2003-01-17 09:33:23 51°14.905 2°50.535 237.3 3 238.6 13.4
2003-01-17 09:34:22 51°14.883 2°50.468 241.7 2.9 245.5 13.6
2003-01-17 09:35:24 51°14.864 2°50.392 250.5 3.1 253.8 13.4
2003-01-17 09:36:22 51°14.859 2°50.322 261 2.5 272.5 13.7
2003-01-17 09:37:23 51°14.865 2°50.254 268.3 2.6 282.7 13.7
2003-01-17 09:38:22 51°14.881 2°50.187 281.3 2.9 297 13.9
2003-01-17 09:39:24 51°14.908 2°50.118 292.2 3.1 305.6 13.9
2003-01-17 09:40:22 51°14.944 2°50.06 304.8 3.3 321.7 14
2003-01-17 09:41:22 51°14.989 2°50.017 314.3 3 334.2 14.2
2003-01-17 09:42:24 51°15.037 2°49.99 322 2.9 343.9 14.3
2003-01-17 09:43:23 51°15.085 2°49.973 326.8 3.1 350 14.5
2003-01-17 09:44:22 51°15.135 2°49.961 325.5 3 350.8 14.6
2003-01-17 09:45:23 51°15.184 2°49.951 324.7 2.9 353.4 14.6
2003-01-17 09:46:24 51°15.233 2°49.945 333.8 3 359.4 14.6
2003-01-17 09:47:23 51°15.285 2°49.953 350.8 3.3 10.3 14.6
2003-01-17 09:48:22 51°15.336 2°49.983 12 3.4 27.9 14.6
2003-01-17 09:49:22 51°15.381 2°50.041 47.8 3.5 48 14.8
2003-01-17 09:50:22 51°15.411 2°50.112 79.7 3.1 60.7 14.8
2003-01-17 09:51:22 51°15.432 2°50.182 97 2.8 67.3 14.8
2003-01-17 09:52:23 51°15.448 2°50.252 108.2 2.7 70.6 14.9
2003-01-17 09:53:24 51°15.463 2°50.32 116 2.7 71.8 14.8
2003-01-17 09:54:22 51°15.475 2°50.386 125.5 2.6 78.5 14.8
2003-01-17 09:55:22 51°15.48 2°50.458 137.3 2.8 84 14.8
2003-01-17 09:56:22 51°15.481 2°50.531 149.5 2.7 92.5 14.9
2003-01-17 09:57:22 51°15.474 2°50.597 169.5 2.5 110.9 14.6
2003-01-17 09:58:22 51°15.45 2°50.631 213 1.8 178 15.1
2003-01-17 09:59:22 51°15.412 2°50.607 220 2.7 208.3 14.8
2003-01-17 10:00:24 51°15.378 2°50.553 240 2.8 239.3 14.9
2003-01-17 10:01:22 51°15.367 2°50.481 257 2.7 270.3 14.9
2003-01-17 10:02:22 51°15.378 2°50.413 272.7 3 291.4 14.9
2003-01-17 10:03:24 51°15.407 2°50.337 291.3 3.4 313 14.8
2003-01-17 10:04:23 51°15.449 2°50.294 302.2 2.8 334.4 15.1
2003-01-17 10:05:22 51°15.49 2°50.263 303 2.7 336.5 15.1
2003-01-17 10:06:24 51°15.534 2°50.238 304.8 2.6 341.4 15.1
2003-01-17 10:07:24 51°15.575 2°50.216 308.2 2.7 344.2 15.1
2003-01-17 10:08:22 51°15.619 2°50.201 312.7 2.8 347.2 15.2
2003-01-17 10:09:23 51°15.666 2°50.184 317 3 349.3 15.1
2003-01-17 10:10:22 51°15.717 2°50.173 330.8 3.4 357.2 15.1
2003-01-17 10:11:23 51°15.776 2°50.182 346 3.5 10.8 14.8
2003-01-17 10:12:24 51°15.831 2°50.21 0.7 3.4 22.7 14.4
2003-01-17 10:13:22 51°15.881 2°50.251 14.2 3.5 30.7 13.9
2003-01-17 10:14:23 51°15.928 2°50.315 41.3 3.9 45.4 13.5
2003-01-17 10:15:22 51°15.967 2°50.399 68.8 4 59.4 13.3
2003-01-17 10:16:22 51°15.993 2°50.495 91.5 3.9 71.3 13.4
2003-01-17 10:17:22 51°16.009 2°50.589 104.8 3.7 78 13.8
2003-01-17 10:18:22 51°16.021 2°50.686 112 3.7 80.7 14.2
2003-01-17 10:19:24 51°16.029 2°50.784 117.7 3.5 84 14.4
2003-01-17 10:20:24 51°16.033 2°50.876 124.3 3.4 87.3 14.8
2003-01-17 10:21:24 51°16.038 2°50.965 126 3.4 85.1 15
2003-01-17 10:22:24 51°16.041 2°51.052 133 3.2 88 15
2003-01-17 10:23:24 51°16.042 2°51.139 135.5 3.3 88.7 15.1
2003-01-17 10:24:24 51°16.045 2°51.218 140.2 2.8 86.6 15.2
2003-01-17 10:25:23 51°16.051 2°51.287 144.8 2.5 77.8 15.2
2003-01-17 10:26:23 51°16.065 2°51.348 142 2.4 67.7 15
2003-01-17 10:27:24 51°16.08 2°51.411 141.8 2.6 79.5 15.1
2003-01-17 10:28:23 51°16.068 2°51.476 182.2 2.3 124.4 15.2
2003-01-17 10:29:24 51°16.045 2°51.471 247 2.3 248.5 14.9
2003-01-17 10:30:22 51°16.01 2°51.407 226.3 4.1 216.2 15.2
2003-01-17 10:31:24 51°15.955 2°51.321 232 4.7 226 15.2
2003-01-17 10:32:24 51°15.897 2°51.23 227.5 5 220.1 15.3
2003-01-17 10:33:22 51°15.83 2°51.161 223.2 5 212.2 15.2
2003-01-17 10:34:24 51°15.768 2°51.069 238.2 4.8 232.7 15.2
2003-01-17 10:35:22 51°15.716 2°50.978 232.5 4.9 224.5 15.4
2003-01-17 10:36:24 51°15.647 2°50.871 231.8 6.5 225.2 15.4
2003-01-17 10:37:22 51°15.568 2°50.743 233.3 7.2 226.6 15.2
2003-01-17 10:38:23 51°15.483 2°50.601 232.7 7.4 226.6 15.4
2003-01-17 10:39:24 51°15.397 2°50.458 233 7.3 226.7 15.2
2003-01-17 10:40:24 51°15.312 2°50.319 232.3 7.3 225.4 15.1
2003-01-17 10:41:23 51°15.228 2°50.182 232.2 7.3 225.1 15.2
2003-01-17 10:42:23 51°15.144 2°50.04 233 7.3 227.3 15.4
2003-01-17 10:43:22 51°15.063 2°49.9 232.7 7.4 227.6 15.3
2003-01-17 10:44:23 51°14.977 2°49.754 233 7.5 227.3 15.2
2003-01-17 10:45:24 51°14.888 2°49.609 230.3 7.5 224.6 15.1
2003-01-17 10:46:24 51°14.795 2°49.472 229.5 7.6 223.2 15
2003-01-17 10:47:23 51°14.704 2°49.334 229.2 7.7 223.4 14.8
2003-01-17 10:48:24 51°14.624 2°49.215 228 4.7 220.8 14.7
2003-01-17 10:49:24 51°14.581 2°49.163 225.2 2.5 214 14.7
2003-01-17 10:50:24 51°14.562 2°49.132 248.5 1.5 259.8 14.7
2003-01-17 10:51:22 51°14.578 2°49.089 285.3 2.5 316.2 14.8
2003-01-17 10:52:22 51°14.618 2°49.048 307.3 3.1 333.1 14.7
2003-01-17 10:53:22 51°14.675 2°49.021 329.7 3.9 352.2 14.8
2003-01-17 10:54:24 51°14.748 2°49.023 352.7 4.6 7.5 15.2
2003-01-17 10:55:24 51°14.827 2°49.067 24.8 5.3 29.3 15.3
2003-01-17 10:56:22 51°14.888 2°49.164 65.3 5.3 56.1 15.1
2003-01-17 10:57:24 51°14.917 2°49.291 102.3 4.7 79.1 15.3
2003-01-17 10:58:22 51°14.923 2°49.404 123.7 4.2 89.3 15.3
2003-01-17 10:59:24 51°14.917 2°49.512 141 3.7 99.3 15.2
2003-01-17 11:00:22 51°14.905 2°49.596 155.7 3.1 105 15.3
2003-01-17 11:01:24 51°14.89 2°49.665 173.8 2.4 113.9 15.1
2003-01-17 11:02:24 51°14.874 2°49.716 188 1.9 119.6 15.2
2003-01-17 11:03:24 51°14.86 2°49.746 212 1 136.6 15.2
2003-01-17 11:04:24 51°14.858 2°49.743 253.5 0.8 310.1 15.1
2003-01-17 11:05:22 51°14.879 2°49.715 283.7 2.2 322.6 15.2
2003-01-17 11:06:22 51°14.915 2°49.677 299 2.9 329.3 15.3
2003-01-17 11:07:22 51°14.965 2°49.641 315.8 3.6 342 15.3
2003-01-17 11:08:24 51°15.031 2°49.62 329.7 4.1 352.2 15.3
2003-01-17 11:09:24 51°15.104 2°49.615 346.3 4.6 3.1 15.5
2003-01-17 11:10:24 51°15.183 2°49.643 13 5.2 20.6 15.5
2003-01-17 11:11:24 51°15.255 2°49.727 53.7 5.4 47 15.5
2003-01-17 11:12:24 51°15.294 2°49.848 92 4.9 72.1 15.4
2003-01-17 11:13:24 51°15.308 2°49.969 115 4.4 83.8 15.3
2003-01-17 11:14:24 51°15.304 2°50.075 136.5 3.8 96.1 15.6
2003-01-17 11:15:22 51°15.293 2°50.165 152.5 3.3 105.2 15.6
2003-01-17 11:16:24 51°15.277 2°50.242 167.7 2.7 111.1 15.5
2003-01-17 11:17:22 51°15.262 2°50.297 184.8 2 119.2 15.6
2003-01-17 11:18:24 51°15.247 2°50.33 212 1 135.6 15.5
2003-01-17 11:19:22 51°15.246 2°50.329 253 0.7 308 15.4
2003-01-17 11:20:24 51°15.267 2°50.301 282.2 2.1 324.7 15.6
2003-01-17 11:21:23 51°15.303 2°50.268 299.8 2.8 332.8 15.4
2003-01-17 11:22:24 51°15.349 2°50.238 315.8 3.4 341.8 15.5
2003-01-17 11:23:23 51°15.412 2°50.22 334.2 4.1 355.3 15.6
2003-01-17 11:24:24 51°15.487 2°50.227 357 4.7 10.3 15.4
2003-01-17 11:25:24 51°15.562 2°50.282 32.8 5.2 34.7 15.6
2003-01-17 11:26:24 51°15.618 2°50.388 72.2 5.2 60 15.5
2003-01-17 11:27:22 51°15.644 2°50.507 103.7 4.7 79 15.6
2003-01-17 11:28:24 51°15.647 2°50.628 127.5 4.2 92.9 15.6
2003-01-17 11:29:24 51°15.639 2°50.73 144.2 3.7 100.1 15.6
2003-01-17 11:30:23 51°15.623 2°50.81 163.8 2.9 112.3 15.5
2003-01-17 11:31:22 51°15.596 2°50.868 189.5 2.7 145.7 15.7
2003-01-17 11:32:24 51°15.558 2°50.861 236.7 2.4 228.4 15.6
2003-01-17 11:33:22 51°15.52 2°50.797 225.5 4.2 217 15.6
2003-01-17 11:34:24 51°15.437 2°50.712 219.7 6.8 210.9 15.2
2003-01-17 11:35:23 51°15.342 2°50.608 223 7.1 214.8 15.5
2003-01-17 11:36:22 51°15.266 2°50.464 235.5 7.4 231.5 15.4
2003-01-17 11:37:24 51°15.177 2°50.316 231.2 7.6 225.9 15.3
2003-01-17 11:38:24 51°15.084 2°50.177 231.3 7.5 225 15.3
2003-01-17 11:39:23 51°15.004 2°50.025 235.2 7.7 230.2 15.2
2003-01-17 11:40:23 51°14.929 2°49.858 238.3 7.7 234.3 15.1
2003-01-17 11:41:22 51°14.846 2°49.706 228.3 7.8 223.2 14.8
2003-01-17 11:42:24 51°14.768 2°49.535 243.2 7.7 240.7 14.9
2003-01-17 11:43:24 51°14.703 2°49.369 237.8 6.1 235.5 14.9
2003-01-17 11:44:23 51°14.657 2°49.316 208 2.1 192.3 14.7
2003-01-17 11:45:23 51°14.632 2°49.332 185.3 1.7 134.6 14.8
2003-01-17 11:46:23 51°14.621 2°49.375 178 1.6 101.1 14.6
2003-01-17 11:47:23 51°14.613 2°49.415 185.3 1.9 131.2 14.5
2003-01-17 11:48:22 51°14.573 2°49.434 206.3 2.8 181.5 14.6
2003-01-17 11:49:24 51°14.528 2°49.406 217.3 2.9 205.4 14.6
2003-01-17 11:50:24 51°14.484 2°49.373 215.8 3 204.3 14.6
2003-01-17 11:51:24 51°14.442 2°49.335 221.8 2.8 215.7 14.3
2003-01-17 11:52:22 51°14.409 2°49.291 224.3 2.6 219.4 14.3
2003-01-17 11:53:23 51°14.378 2°49.245 228.8 2.5 228.6 14.2
2003-01-17 11:54:24 51°14.351 2°49.191 231.5 2.5 233.3 14.2
2003-01-17 11:55:22 51°14.328 2°49.137 234 2.6 236.3 14.2
2003-01-17 11:56:24 51°14.303 2°49.081 233 2.4 234 14.3
2003-01-17 11:57:22 51°14.28 2°49.029 234 2.6 236 14.3
2003-01-17 11:58:23 51°14.256 2°48.968 235.7 2.8 238.2 14.2
2003-01-17 11:59:24 51°14.232 2°48.901 240.2 2.9 243.5 14
2003-01-17 12:00:24 51°14.214 2°48.826 249.2 3 256.3 14
2003-01-17 12:01:24 51°14.21 2°48.747 255.5 2.9 267.2 14
2003-01-17 12:02:24 51°14.21 2°48.669 260.8 3.2 272.3 14
2003-01-17 12:03:24 51°14.227 2°48.596 290.3 2.8 310.9 14.2
2003-01-17 12:04:24 51°14.271 2°48.557 312.3 3.1 337.6 14.3
2003-01-17 12:05:22 51°14.313 2°48.546 314.7 2.4 356.6 14.4
2003-01-17 12:06:24 51°14.351 2°48.548 307.3 2 6.6 14.2
2003-01-17 12:07:24 51°14.382 2°48.552 307.3 2.4 349.4 14.4
2003-01-17 12:08:24 51°14.449 2°48.524 344 5.2 352.9 14.5
2003-01-17 12:09:24 51°14.532 2°48.547 14.2 4.9 17.5 14.8
2003-01-17 12:10:24 51°14.599 2°48.615 47.7 4.7 42.9 14.9
2003-01-17 12:11:22 51°14.643 2°48.706 73.8 4.3 59.6 14.8
2003-01-17 12:12:24 51°14.671 2°48.809 86 4.1 67.7 14.9
2003-01-17 12:13:24 51°14.694 2°48.909 93.5 4 70.4 14.9
2003-01-17 12:14:24 51°14.712 2°49.008 101.3 3.8 75.4 14.7
2003-01-17 12:15:24 51°14.726 2°49.108 105.3 3.9 79.5 14.8
2003-01-17 12:16:24 51°14.739 2°49.212 98.2 4.1 76.7 14.9
2003-01-17 12:17:24 51°14.755 2°49.319 97.2 4.1 75.1 14.9
2003-01-17 12:18:24 51°14.775 2°49.42 96.5 3.9 73.5 15
2003-01-17 12:19:23 51°14.792 2°49.513 99.7 3.7 73.5 15
2003-01-17 12:20:24 51°14.808 2°49.608 101.5 3.6 74.9 15
2003-01-17 12:21:24 51°14.822 2°49.701 102 3.6 75.9 14.9
2003-01-17 12:22:24 51°14.841 2°49.793 98.5 3.8 72.6 14.9
2003-01-17 12:23:24 51°14.857 2°49.89 97.8 3.9 74.6 14.9
2003-01-17 12:24:24 51°14.877 2°49.991 92.8 4.1 70.9 14.9
2003-01-17 12:25:24 51°14.901 2°50.096 91.5 4.2 71.4 14.8
2003-01-17 12:26:24 51°14.924 2°50.201 90.5 4.1 71.2 14.7
2003-01-17 12:27:24 51°14.95 2°50.3 88.5 4 67.2 14.8
2003-01-17 12:28:24 51°14.975 2°50.399 92 4 70.1 14.9
2003-01-17 12:29:24 51°14.997 2°50.499 95.2 3.9 72.3 14.8
2003-01-17 12:30:24 51°15.014 2°50.598 98 3.9 75.1 14.8
2003-01-17 12:31:24 51°15.03 2°50.697 97.5 3.9 73.3 14.9
2003-01-17 12:32:24 51°15.048 2°50.795 97.5 3.8 75.1 14.6
2003-01-17 12:33:22 51°15.063 2°50.89 105.7 3.7 78.1 14.8
2003-01-17 12:34:24 51°15.074 2°50.987 120.2 3.4 84.8 14.8
2003-01-17 12:35:24 51°15.075 2°51.069 135.3 3 89 14.7
2003-01-17 12:36:23 51°15.078 2°51.144 141.5 2.7 86.7 14.7
2003-01-17 12:37:24 51°15.085 2°51.206 148 2.1 72.7 14.6
2003-01-17 12:38:24 51°15.1 2°51.255 146.7 2.1 60.8 14.4
2003-01-17 12:39:24 51°15.119 2°51.301 143.5 2.1 53.4 14.3
2003-01-17 12:40:24 51°15.134 2°51.364 124.3 3.9 91 14.5
2003-01-17 12:41:24 51°15.123 2°51.552 111.3 9.8 99.2 14.1
2003-01-17 12:42:24 51°15.09 2°51.856 110.5 12.4 99.7 13.8
2003-01-17 12:43:24 51°15.056 2°52.184 112 12.7 100.5 13.3
2003-01-17 12:44:24 51°15.019 2°52.511 109.5 12.6 99.9 12.8
2003-01-17 12:45:24 51°14.979 2°52.833 111.8 12.2 102 12.5
2003-01-17 12:46:24 51°14.938 2°53.154 109.3 12.2 100.2 12.3
2003-01-17 12:47:24 51°14.886 2°53.467 128.7 12 117.4 11.8
2003-01-17 12:48:24 51°14.788 2°53.743 129.3 12.1 119.1 12
2003-01-17 12:49:24 51°14.697 2°54.03 121.8 12.5 109.5 11.9
2003-01-17 12:50:24 51°14.616 2°54.327 129.8 11.6 115.7 11.9
2003-01-17 12:51:24 51°14.536 2°54.592 132.5 10.9 116.9 11.6
2003-01-17 12:52:22 51°14.446 2°54.825 140.7 10.4 126.7 11.8
2003-01-17 12:53:24 51°14.352 2°55.06 132.7 9.7 124.8 12